createdAt,value
2023-07-03T00:00:59.065Z,36.81
2023-07-03T00:01:59.143Z,36.77
2023-07-03T00:02:59.088Z,36.79
2023-07-03T00:03:59.100Z,36.84
2023-07-03T00:04:59.137Z,36.80
2023-07-03T00:05:59.022Z,36.81
2023-07-03T00:06:59.030Z,36.82
2023-07-03T00:07:59.064Z,36.77
2023-07-03T00:08:59.048Z,36.77
2023-07-03T00:09:59.085Z,36.82
2023-07-03T00:10:59.105Z,36.74
2023-07-03T00:11:59.054Z,36.76
2023-07-03T00:12:59.057Z,36.82
2023-07-03T00:13:59.062Z,36.79
2023-07-03T00:14:59.065Z,36.81
2023-07-03T00:15:59.095Z,36.81
2023-07-03T00:16:59.101Z,36.80
2023-07-03T00:17:59.116Z,36.82
2023-07-03T00:18:59.080Z,36.82
2023-07-03T00:19:59.074Z,36.80
2023-07-03T00:20:59.130Z,36.81
2023-07-03T00:21:59.096Z,36.79
2023-07-03T00:22:59.124Z,36.80
2023-07-03T00:23:59.097Z,36.81
2023-07-03T00:24:59.095Z,36.79
2023-07-03T00:25:59.151Z,36.83
2023-07-03T00:26:59.114Z,36.79
2023-07-03T00:27:59.132Z,36.81
2023-07-03T00:28:59.138Z,36.81
2023-07-03T00:29:59.143Z,36.80
2023-07-03T00:30:59.119Z,36.77
2023-07-03T00:31:59.141Z,36.81
2023-07-03T00:32:59.146Z,36.82
2023-07-03T00:33:59.127Z,36.78
2023-07-03T00:34:59.150Z,36.81
2023-07-03T00:35:59.111Z,36.82
2023-07-03T00:36:59.118Z,36.78
2023-07-03T00:37:59.105Z,36.82
2023-07-03T00:38:59.104Z,36.81
2023-07-03T00:39:59.096Z,36.80
2023-07-03T00:40:59.103Z,36.77
2023-07-03T00:41:59.096Z,36.79
2023-07-03T00:42:59.186Z,36.76
2023-07-03T00:43:59.088Z,36.81
2023-07-03T00:44:59.115Z,36.78
2023-07-03T00:45:59.102Z,36.79
2023-07-03T00:46:59.082Z,36.79
2023-07-03T00:47:59.129Z,36.77
2023-07-03T00:48:59.121Z,36.81
2023-07-03T00:49:59.143Z,36.76
2023-07-03T00:50:59.233Z,36.81
2023-07-03T00:51:59.170Z,36.79
2023-07-03T00:52:59.225Z,36.78
2023-07-03T00:53:59.224Z,36.76
2023-07-03T00:54:59.250Z,36.81
2023-07-03T00:55:59.262Z,36.82
2023-07-03T00:56:59.222Z,36.78
2023-07-03T00:57:59.254Z,36.83
2023-07-03T00:58:59.263Z,36.76
2023-07-03T00:59:59.259Z,36.77
2023-07-03T01:01:06.356Z,36.77
2023-07-03T01:01:59.372Z,36.77
2023-07-03T01:02:59.820Z,36.81
2023-07-03T01:03:59.267Z,36.82
2023-07-03T01:04:59.377Z,36.80
2023-07-03T01:05:59.259Z,36.81
2023-07-03T01:06:59.236Z,36.81
2023-07-03T01:07:59.711Z,36.79
2023-07-03T01:08:59.232Z,36.81
2023-07-03T01:09:59.231Z,36.81
2023-07-03T01:10:59.738Z,36.78
2023-07-03T01:11:59.209Z,36.76
2023-07-03T01:12:59.224Z,36.78
2023-07-03T01:13:59.197Z,36.82
2023-07-03T01:14:59.203Z,36.78
2023-07-03T01:15:59.192Z,36.82
2023-07-03T01:16:59.157Z,36.82
2023-07-03T01:17:59.190Z,36.79
2023-07-03T01:18:59.168Z,36.83
2023-07-03T01:19:59.155Z,36.82
2023-07-03T01:20:59.160Z,36.81
2023-07-03T01:21:59.131Z,36.81
2023-07-03T01:22:59.115Z,36.78
2023-07-03T01:23:59.108Z,36.76
2023-07-03T01:24:59.102Z,36.78
2023-07-03T01:25:59.105Z,36.73
2023-07-03T01:26:59.120Z,36.79
2023-07-03T01:27:59.087Z,36.80
2023-07-03T01:28:59.081Z,36.81
2023-07-03T01:29:59.093Z,36.79
2023-07-03T01:30:59.089Z,36.79
2023-07-03T01:31:59.091Z,36.76
2023-07-03T01:32:59.066Z,36.79
2023-07-03T01:33:59.045Z,36.76
2023-07-03T01:34:59.054Z,36.76
2023-07-03T01:35:59.066Z,36.83
2023-07-03T01:36:59.033Z,36.81
2023-07-03T01:37:59.026Z,36.79
2023-07-03T01:38:59.053Z,36.81
2023-07-03T01:39:59.081Z,36.79
2023-07-03T01:40:59.104Z,36.79
2023-07-03T01:41:59.161Z,36.76
2023-07-03T01:42:59.205Z,36.78
2023-07-03T01:43:59.216Z,36.82
2023-07-03T01:44:59.220Z,36.76
2023-07-03T01:45:59.304Z,36.76
2023-07-03T01:46:59.305Z,36.78
2023-07-03T01:47:59.468Z,36.78
2023-07-03T01:48:59.388Z,36.78
2023-07-03T01:49:59.445Z,36.77
2023-07-03T01:50:59.478Z,36.79
2023-07-03T01:51:59.517Z,36.82
2023-07-03T01:52:59.542Z,36.79
2023-07-03T01:53:59.585Z,36.78
2023-07-03T01:54:59.622Z,36.78
2023-07-03T01:55:59.646Z,36.81
2023-07-03T01:56:59.650Z,36.78
2023-07-03T01:57:59.713Z,36.78
2023-07-03T01:58:59.758Z,36.82
2023-07-03T01:59:59.805Z,36.76
2023-07-03T02:00:59.889Z,36.75
2023-07-03T02:01:59.924Z,36.78
2023-07-03T02:02:59.979Z,36.78
2023-07-03T02:03:59.958Z,36.75
2023-07-03T02:05:00.044Z,36.82
2023-07-03T02:06:00.005Z,36.76
2023-07-03T02:07:00.102Z,36.82
2023-07-03T02:08:00.115Z,36.78
2023-07-03T02:09:00.166Z,36.76
2023-07-03T02:10:00.247Z,36.76
2023-07-03T02:11:00.236Z,36.79
2023-07-03T02:12:00.293Z,36.76
2023-07-03T02:13:00.304Z,36.78
2023-07-03T02:14:00.353Z,36.81
2023-07-03T02:15:00.380Z,36.81
2023-07-03T02:16:00.415Z,36.79
2023-07-03T02:17:00.514Z,36.76
2023-07-03T02:18:00.565Z,36.81
2023-07-03T02:19:00.538Z,36.83
2023-07-03T02:20:00.591Z,36.78
2023-07-03T02:21:00.586Z,36.79
2023-07-03T02:22:00.639Z,36.76
2023-07-03T02:23:00.661Z,36.78
2023-07-03T02:24:00.701Z,36.79
2023-07-03T02:25:00.736Z,36.74
2023-07-03T02:26:00.771Z,36.79
2023-07-03T02:27:00.818Z,36.78
2023-07-03T02:28:00.870Z,36.81
2023-07-03T02:29:00.937Z,36.79
2023-07-03T02:30:00.960Z,36.76
2023-07-03T02:31:01.019Z,36.78
2023-07-03T02:32:01.029Z,36.79
2023-07-03T02:33:01.095Z,36.78
2023-07-03T02:34:01.052Z,36.74
2023-07-03T02:35:01.072Z,36.82
2023-07-03T02:36:01.088Z,36.80
2023-07-03T02:37:01.106Z,36.76
2023-07-03T02:38:01.109Z,36.79
2023-07-03T02:39:01.122Z,36.78
2023-07-03T02:40:01.132Z,36.76
2023-07-03T02:41:01.145Z,36.79
2023-07-03T02:42:01.147Z,36.76
2023-07-03T02:43:01.140Z,36.78
2023-07-03T02:44:01.143Z,36.79
2023-07-03T02:45:01.205Z,36.78
2023-07-03T02:46:01.170Z,36.74
2023-07-03T02:47:01.234Z,36.75
2023-07-03T02:48:01.271Z,36.79
2023-07-03T02:49:01.249Z,36.78
2023-07-03T02:50:01.397Z,36.78
2023-07-03T02:51:01.296Z,36.76
2023-07-03T02:52:01.352Z,36.83
2023-07-03T02:53:01.373Z,36.75
2023-07-03T02:54:01.373Z,36.75
2023-07-03T02:55:01.445Z,36.78
2023-07-03T02:56:01.465Z,36.78
2023-07-03T02:57:01.496Z,36.76
2023-07-03T02:58:01.504Z,36.79
2023-07-03T02:59:01.545Z,36.76
2023-07-03T03:00:01.578Z,36.76
2023-07-03T03:01:01.642Z,36.76
2023-07-03T03:02:01.670Z,36.78
2023-07-03T03:03:01.676Z,36.75
2023-07-03T03:04:01.693Z,36.78
2023-07-03T03:05:01.744Z,36.75
2023-07-03T03:06:01.662Z,36.76
2023-07-03T03:07:01.683Z,36.76
2023-07-03T03:08:01.711Z,36.72
2023-07-03T03:09:01.697Z,36.76
2023-07-03T03:10:01.717Z,36.75
2023-07-03T03:11:01.756Z,36.76
2023-07-03T03:12:01.704Z,36.73
2023-07-03T03:13:01.728Z,36.81
2023-07-03T03:14:01.717Z,36.75
2023-07-03T03:15:01.742Z,36.79
2023-07-03T03:16:01.730Z,36.78
2023-07-03T03:17:01.779Z,36.78
2023-07-03T03:18:01.773Z,36.78
2023-07-03T03:19:01.720Z,36.79
2023-07-03T03:20:01.708Z,36.75
2023-07-03T03:21:01.754Z,36.80
2023-07-03T03:22:01.725Z,36.74
2023-07-03T03:23:01.703Z,36.76
2023-07-03T03:24:01.729Z,36.76
2023-07-03T03:25:01.732Z,36.75
2023-07-03T03:26:01.768Z,36.78
2023-07-03T03:27:01.784Z,36.75
2023-07-03T03:28:01.781Z,36.78
2023-07-03T03:29:01.767Z,36.80
2023-07-03T03:30:01.775Z,36.75
2023-07-03T03:31:01.856Z,36.75
2023-07-03T03:32:01.769Z,36.76
2023-07-03T03:33:01.800Z,36.78
2023-07-03T03:34:01.748Z,36.78
2023-07-03T03:35:01.758Z,36.75
2023-07-03T03:36:01.749Z,36.81
2023-07-03T03:37:01.757Z,36.76
2023-07-03T03:38:01.762Z,36.75
2023-07-03T03:39:01.771Z,36.75
2023-07-03T03:40:01.774Z,36.75
2023-07-03T03:41:01.784Z,36.74
2023-07-03T03:42:01.825Z,36.74
2023-07-03T03:43:01.817Z,36.78
2023-07-03T03:44:01.843Z,36.72
2023-07-03T03:45:01.827Z,36.76
2023-07-03T03:46:01.842Z,36.75
2023-07-03T03:47:01.843Z,36.79
2023-07-03T03:48:01.886Z,36.78
2023-07-03T03:49:01.919Z,36.72
2023-07-03T03:50:01.898Z,36.71
2023-07-03T03:51:02.039Z,36.78
2023-07-03T03:52:01.856Z,36.75
2023-07-03T03:53:01.873Z,36.79
2023-07-03T03:54:01.875Z,36.78
2023-07-03T03:55:01.902Z,36.75
2023-07-03T03:56:01.888Z,36.75
2023-07-03T03:57:01.899Z,36.75
2023-07-03T03:58:01.904Z,36.71
2023-07-03T03:59:01.924Z,36.74
2023-07-03T04:00:01.940Z,36.75
2023-07-03T04:01:01.935Z,36.76
2023-07-03T04:02:02.115Z,36.76
2023-07-03T04:03:02.012Z,36.74
2023-07-03T04:04:02.028Z,36.72
2023-07-03T04:05:02.035Z,36.75
2023-07-03T04:06:01.976Z,36.71
2023-07-03T04:07:01.974Z,36.70
2023-07-03T04:08:01.963Z,36.72
2023-07-03T04:09:01.972Z,36.70
2023-07-03T04:10:01.987Z,36.74
2023-07-03T04:11:01.979Z,36.71
2023-07-03T04:12:01.986Z,36.75
2023-07-03T04:13:01.971Z,36.76
2023-07-03T04:14:02.037Z,36.72
2023-07-03T04:15:01.997Z,36.76
2023-07-03T04:16:02.724Z,36.75
2023-07-03T04:17:02.059Z,36.75
2023-07-03T04:18:02.124Z,36.71
2023-07-03T04:19:01.965Z,36.74
2023-07-03T04:20:01.975Z,36.74
2023-07-03T04:21:01.972Z,36.74
2023-07-03T04:22:01.988Z,36.71
2023-07-03T04:23:01.967Z,36.75
2023-07-03T04:24:01.987Z,36.75
2023-07-03T04:25:02.002Z,36.68
2023-07-03T04:26:02.035Z,36.70
2023-07-03T04:27:02.041Z,36.69
2023-07-03T04:28:02.049Z,36.74
2023-07-03T04:29:02.041Z,36.72
2023-07-03T04:30:02.044Z,36.73
2023-07-03T04:31:02.050Z,36.71
2023-07-03T04:32:02.099Z,36.74
2023-07-03T04:33:02.123Z,36.71
2023-07-03T04:34:02.087Z,36.71
2023-07-03T04:35:02.105Z,36.76
2023-07-03T04:36:02.118Z,36.74
2023-07-03T04:37:02.128Z,36.70
2023-07-03T04:38:02.119Z,36.69
2023-07-03T04:39:02.211Z,36.70
2023-07-03T04:40:02.157Z,36.71
2023-07-03T04:41:02.125Z,36.70
2023-07-03T04:42:02.104Z,36.72
2023-07-03T04:43:02.102Z,36.71
2023-07-03T04:44:02.215Z,36.68
2023-07-03T04:45:02.125Z,36.70
2023-07-03T04:46:02.150Z,36.71
2023-07-03T04:47:02.110Z,36.73
2023-07-03T04:48:02.114Z,36.69
2023-07-03T04:49:02.116Z,36.72
2023-07-03T04:50:02.127Z,36.66
2023-07-03T04:51:02.119Z,36.75
2023-07-03T04:52:02.133Z,36.67
2023-07-03T04:53:02.153Z,36.74
2023-07-03T04:54:02.196Z,36.71
2023-07-03T04:55:02.138Z,36.69
2023-07-03T04:56:02.164Z,36.71
2023-07-03T04:57:02.189Z,36.67
2023-07-03T04:58:02.167Z,36.72
2023-07-03T04:59:02.163Z,36.75
2023-07-03T05:00:02.254Z,36.71
2023-07-03T05:01:02.269Z,36.68
2023-07-03T05:02:02.199Z,36.73
2023-07-03T05:03:02.218Z,36.70
2023-07-03T05:04:02.263Z,36.69
2023-07-03T05:05:02.300Z,36.69
2023-07-03T05:06:02.195Z,36.70
2023-07-03T05:07:02.208Z,36.71
2023-07-03T05:08:02.215Z,36.69
2023-07-03T05:09:02.249Z,36.68
2023-07-03T05:10:02.262Z,36.72
2023-07-03T05:11:02.246Z,36.67
2023-07-03T05:12:02.269Z,36.70
2023-07-03T05:13:02.311Z,36.70
2023-07-03T05:14:02.262Z,36.65
2023-07-03T05:15:02.279Z,36.68
2023-07-03T05:16:02.383Z,36.68
2023-07-03T05:17:02.305Z,36.66
2023-07-03T05:18:02.379Z,36.70
2023-07-03T05:19:02.320Z,36.71
2023-07-03T05:20:02.350Z,36.70
2023-07-03T05:21:02.351Z,36.68
2023-07-03T05:22:02.373Z,36.70
2023-07-03T05:23:02.340Z,36.66
2023-07-03T05:24:02.362Z,36.70
2023-07-03T05:25:02.357Z,36.68
2023-07-03T05:26:02.366Z,36.66
2023-07-03T05:27:02.401Z,36.69
2023-07-03T05:28:02.418Z,36.63
2023-07-03T05:29:02.396Z,36.63
2023-07-03T05:30:02.444Z,36.68
2023-07-03T05:31:02.427Z,36.64
2023-07-03T05:32:02.918Z,36.70
2023-07-03T05:33:02.434Z,36.69
2023-07-03T05:34:02.382Z,36.71
2023-07-03T05:35:02.388Z,37.13
2023-07-03T05:36:02.421Z,38.28
2023-07-03T05:37:02.832Z,38.11
2023-07-03T05:38:02.495Z,38.03
2023-07-03T05:39:02.572Z,38.32
2023-07-03T05:40:02.513Z,38.44
2023-07-03T05:41:02.564Z,38.40
2023-07-03T05:42:02.831Z,38.44
2023-07-03T05:43:02.759Z,38.25
2023-07-03T05:44:02.706Z,38.47
2023-07-03T05:45:02.818Z,38.62
2023-07-03T05:46:02.817Z,38.16
2023-07-03T05:47:03.811Z,38.56
2023-07-03T05:48:03.036Z,38.85
2023-07-03T05:49:03.049Z,38.73
2023-07-03T05:50:03.099Z,38.53
2023-07-03T05:51:03.168Z,38.22
2023-07-03T05:52:03.245Z,38.32
2023-07-03T05:53:03.263Z,38.30
2023-07-03T05:54:03.310Z,38.12
2023-07-03T05:55:03.372Z,38.16
2023-07-03T05:56:03.425Z,38.59
2023-07-03T05:57:03.455Z,38.46
2023-07-03T05:58:03.500Z,38.44
2023-07-03T05:59:03.557Z,38.39
2023-07-03T06:00:03.564Z,38.40
2023-07-03T06:01:03.629Z,38.25
2023-07-03T06:02:03.862Z,38.57
2023-07-03T06:03:03.883Z,38.62
2023-07-03T06:04:03.734Z,38.51
2023-07-03T06:05:03.913Z,38.59
2023-07-03T06:06:03.759Z,38.65
2023-07-03T06:07:03.847Z,38.79
2023-07-03T06:08:03.884Z,38.75
2023-07-03T06:09:03.880Z,38.89
2023-07-03T06:10:03.893Z,38.95
2023-07-03T06:11:03.925Z,38.98
2023-07-03T06:12:03.936Z,39.10
2023-07-03T06:13:03.965Z,39.18
2023-07-03T06:14:03.976Z,39.23
2023-07-03T06:15:03.983Z,38.96
2023-07-03T06:16:03.981Z,39.12
2023-07-03T06:17:04.172Z,39.20
2023-07-03T06:18:04.146Z,38.97
2023-07-03T06:19:04.018Z,39.02
2023-07-03T06:20:04.041Z,38.83
2023-07-03T06:21:04.034Z,38.88
2023-07-03T06:22:04.032Z,38.64
2023-07-03T06:23:04.042Z,38.55
2023-07-03T06:24:04.049Z,38.81
2023-07-03T06:25:04.042Z,38.92
2023-07-03T06:26:04.037Z,39.00
2023-07-03T06:27:04.072Z,39.13
2023-07-03T06:28:04.045Z,38.93
2023-07-03T06:29:04.095Z,38.87
2023-07-03T06:30:04.076Z,39.06
2023-07-03T06:31:04.090Z,39.10
2023-07-03T06:32:04.031Z,38.94
2023-07-03T06:33:04.121Z,39.16
2023-07-03T06:34:04.037Z,39.30
2023-07-03T06:35:06.781Z,39.54
2023-07-03T06:36:04.023Z,39.48
2023-07-03T06:37:04.065Z,39.49
2023-07-03T06:38:04.029Z,39.89
2023-07-03T06:39:04.001Z,39.06
2023-07-03T06:40:03.993Z,38.48
2023-07-03T06:41:04.003Z,38.47
2023-07-03T06:42:04.401Z,38.22
2023-07-03T06:43:03.986Z,38.03
2023-07-03T06:44:03.995Z,38.00
2023-07-03T06:45:04.177Z,37.81
2023-07-03T06:46:03.964Z,37.91
2023-07-03T06:47:04.004Z,37.41
2023-07-03T06:48:04.097Z,37.29
2023-07-03T06:49:03.933Z,37.10
2023-07-03T06:50:03.931Z,37.21
2023-07-03T06:51:03.971Z,37.18
2023-07-03T06:52:04.377Z,37.39
2023-07-03T06:53:03.901Z,37.41
2023-07-03T06:54:03.888Z,37.51
2023-07-03T06:55:03.888Z,37.23
2023-07-03T06:56:03.899Z,37.26
2023-07-03T06:57:04.365Z,37.18
2023-07-03T06:58:03.882Z,37.11
2023-07-03T06:59:03.872Z,37.04
2023-07-03T07:00:03.873Z,36.94
2023-07-03T07:01:03.937Z,36.93
2023-07-03T07:02:03.953Z,37.01
2023-07-03T07:03:04.027Z,37.22
2023-07-03T07:04:04.053Z,37.15
2023-07-03T07:05:04.315Z,37.21
2023-07-03T07:06:03.896Z,37.18
2023-07-03T07:07:03.830Z,37.14
2023-07-03T07:08:03.824Z,37.06
2023-07-03T07:09:03.801Z,37.03
2023-07-03T07:10:03.811Z,37.16
2023-07-03T07:11:03.831Z,37.19
2023-07-03T07:12:03.783Z,37.05
2023-07-03T07:13:03.783Z,37.06
2023-07-03T07:14:03.779Z,37.06
2023-07-03T07:15:03.781Z,37.03
2023-07-03T07:16:03.772Z,36.97
2023-07-03T07:17:03.902Z,36.99
2023-07-03T07:18:03.836Z,36.98
2023-07-03T07:19:03.757Z,36.96
2023-07-03T07:20:03.755Z,36.91
2023-07-03T07:21:03.734Z,36.92
2023-07-03T07:22:03.713Z,36.86
2023-07-03T07:23:03.737Z,36.80
2023-07-03T07:24:03.695Z,36.74
2023-07-03T07:25:03.690Z,36.74
2023-07-03T07:26:03.698Z,36.61
2023-07-03T07:27:03.706Z,36.59
2023-07-03T07:28:03.703Z,36.52
2023-07-03T07:29:03.686Z,36.58
2023-07-03T07:30:03.670Z,36.47
2023-07-03T07:31:03.700Z,36.70
2023-07-03T07:32:03.656Z,37.12
2023-07-03T07:33:03.800Z,38.48
2023-07-03T07:34:03.670Z,39.03
2023-07-03T07:35:03.724Z,40.34
2023-07-03T07:36:03.770Z,40.04
2023-07-03T07:37:03.814Z,40.23
2023-07-03T07:38:03.845Z,40.35
2023-07-03T07:39:03.870Z,41.15
2023-07-03T07:40:03.944Z,41.12
2023-07-03T07:41:04.047Z,40.78
2023-07-03T07:42:04.043Z,40.23
2023-07-03T07:43:04.020Z,39.61
2023-07-03T07:44:04.084Z,39.08
2023-07-03T07:45:04.096Z,38.81
2023-07-03T07:46:04.131Z,38.66
2023-07-03T07:47:04.158Z,38.45
2023-07-03T07:48:04.208Z,38.36
2023-07-03T07:49:04.400Z,38.21
2023-07-03T07:50:04.272Z,37.99
2023-07-03T07:51:04.312Z,37.91
2023-07-03T07:52:04.330Z,37.72
2023-07-03T07:53:04.360Z,37.65
2023-07-03T07:54:04.479Z,37.55
2023-07-03T07:55:04.443Z,37.45
2023-07-03T07:56:04.453Z,37.36
2023-07-03T07:57:04.493Z,37.29
2023-07-03T07:58:04.570Z,37.23
2023-07-03T07:59:04.640Z,37.02
2023-07-03T08:00:04.618Z,36.91
2023-07-03T08:01:04.689Z,36.86
2023-07-03T08:02:04.738Z,36.92
2023-07-03T08:03:06.659Z,36.72
2023-07-03T08:04:04.774Z,36.59
2023-07-03T08:05:04.876Z,36.54
2023-07-03T08:06:04.764Z,36.37
2023-07-03T08:07:04.723Z,36.27
2023-07-03T08:08:04.710Z,36.27
2023-07-03T08:09:04.765Z,36.08
2023-07-03T08:10:04.716Z,36.06
2023-07-03T08:11:04.711Z,36.09
2023-07-03T08:12:04.682Z,35.98
2023-07-03T08:13:04.740Z,35.88
2023-07-03T08:14:04.678Z,35.78
2023-07-03T08:15:04.660Z,35.68
2023-07-03T08:16:04.665Z,35.50
2023-07-03T08:17:04.654Z,35.42
2023-07-03T08:18:04.724Z,35.40
2023-07-03T08:19:04.628Z,35.31
2023-07-03T08:20:04.647Z,35.12
2023-07-03T08:21:04.734Z,35.06
2023-07-03T08:22:04.627Z,35.04
2023-07-03T08:23:04.590Z,35.09
2023-07-03T08:24:05.228Z,35.94
2023-07-03T08:25:04.591Z,35.77
2023-07-03T08:26:04.629Z,36.03
2023-07-03T08:27:04.677Z,36.11
2023-07-03T08:28:04.716Z,35.90
2023-07-03T08:29:04.734Z,36.13
2023-07-03T08:30:04.801Z,35.80
2023-07-03T08:31:04.816Z,35.45
2023-07-03T08:32:04.957Z,35.25
2023-07-03T08:33:05.047Z,35.06
2023-07-03T08:34:05.024Z,34.97
2023-07-03T08:37:08.372Z,34.66
2023-07-03T08:38:04.924Z,34.59
2023-07-03T08:39:04.958Z,34.51
2023-07-03T08:40:05.947Z,34.41
2023-07-03T08:41:04.917Z,34.36
2023-07-03T08:42:04.915Z,34.82
2023-07-03T08:43:04.900Z,35.55
2023-07-03T08:44:04.902Z,36.67
2023-07-03T08:45:04.905Z,36.98
2023-07-03T08:46:04.917Z,37.59
2023-07-03T08:47:11.453Z,38.14
2023-07-03T08:48:05.932Z,38.42
2023-07-03T08:49:04.876Z,38.61
2023-07-03T08:50:07.247Z,38.86
2023-07-03T08:51:04.869Z,39.22
2023-07-03T08:52:04.927Z,39.44
2023-07-03T08:53:05.015Z,39.50
2023-07-03T08:54:04.833Z,39.69
2023-07-03T08:55:04.813Z,39.84
2023-07-03T08:56:04.817Z,40.07
2023-07-03T08:57:04.823Z,40.11
2023-07-03T08:58:04.838Z,40.31
2023-07-03T08:59:04.785Z,40.35
2023-07-03T09:00:04.781Z,40.33
2023-07-03T09:01:04.820Z,40.42
2023-07-03T09:02:04.998Z,40.48
2023-07-03T09:03:06.037Z,40.53
2023-07-03T09:04:04.753Z,40.50
2023-07-03T09:05:04.812Z,40.64
2023-07-03T09:06:04.783Z,40.70
2023-07-03T09:07:04.761Z,40.77
2023-07-03T09:08:04.726Z,40.91
2023-07-03T09:09:04.924Z,40.95
2023-07-03T09:10:04.755Z,40.95
2023-07-03T09:11:04.717Z,41.07
2023-07-03T09:12:04.917Z,41.10
2023-07-03T09:13:04.756Z,41.26
2023-07-03T09:14:04.742Z,41.24
2023-07-03T09:15:06.032Z,41.31
2023-07-03T09:16:04.742Z,41.36
2023-07-03T09:17:04.820Z,41.42
2023-07-03T09:18:04.817Z,41.52
2023-07-03T09:19:04.768Z,41.46
2023-07-03T09:20:04.754Z,41.51
2023-07-03T09:21:04.822Z,41.57
2023-07-03T09:22:04.777Z,41.52
2023-07-03T09:23:04.756Z,41.52
2023-07-03T09:24:04.777Z,41.60
2023-07-03T09:25:05.108Z,41.59
2023-07-03T09:26:05.607Z,41.62
2023-07-03T09:27:04.827Z,41.55
2023-07-03T09:28:04.861Z,41.70
2023-07-03T09:29:05.049Z,41.17
2023-07-03T09:30:04.996Z,41.11
2023-07-03T09:31:05.428Z,41.09
2023-07-03T09:32:05.485Z,41.02
2023-07-03T09:33:05.205Z,40.99
2023-07-03T09:34:05.229Z,40.93
2023-07-03T09:35:05.290Z,40.86
2023-07-03T09:36:05.350Z,40.84
2023-07-03T09:37:05.422Z,40.85
2023-07-03T09:38:05.446Z,40.84
2023-07-03T09:39:05.492Z,40.79
2023-07-03T09:40:05.612Z,40.76
2023-07-03T09:41:05.647Z,40.84
2023-07-03T09:42:05.620Z,40.85
2023-07-03T09:43:05.637Z,40.84
2023-07-03T09:44:05.677Z,40.86
2023-07-03T09:45:05.669Z,40.86
2023-07-03T09:46:05.675Z,40.84
2023-07-03T09:47:05.761Z,40.85
2023-07-03T09:48:05.877Z,40.84
2023-07-03T09:49:05.719Z,40.84
2023-07-03T09:50:05.692Z,40.84
2023-07-03T09:51:07.852Z,40.80
2023-07-03T09:52:05.759Z,40.84
2023-07-03T09:53:08.992Z,40.85
2023-07-03T09:54:05.717Z,40.82
2023-07-03T09:55:05.654Z,40.83
2023-07-03T09:56:05.638Z,40.78
2023-07-03T09:57:05.718Z,40.80
2023-07-03T09:58:05.627Z,40.78
2023-07-03T09:59:05.624Z,40.77
2023-07-03T10:00:05.621Z,40.79
2023-07-03T10:01:05.972Z,40.73
2023-07-03T10:07:05.830Z,40.73
2023-07-03T10:08:05.784Z,40.71
2023-07-03T10:12:05.699Z,40.68
2023-07-03T10:13:05.710Z,40.69
2023-07-03T10:14:05.525Z,40.70
2023-07-03T10:15:05.516Z,40.58
2023-07-03T10:16:05.510Z,40.66
2023-07-03T10:17:05.519Z,40.69
2023-07-03T10:18:05.544Z,40.64
2023-07-03T10:19:05.490Z,40.70
2023-07-03T10:20:05.497Z,40.61
2023-07-03T10:21:05.464Z,40.63
2023-07-03T10:22:05.460Z,40.57
2023-07-03T10:23:05.475Z,40.61
2023-07-03T10:24:05.452Z,40.57
2023-07-03T10:25:05.572Z,40.60
2023-07-03T10:26:05.447Z,40.58
2023-07-03T10:27:05.435Z,40.57
2023-07-03T10:28:05.445Z,40.57
2023-07-03T10:29:05.488Z,40.58
2023-07-03T10:30:05.456Z,40.55
2023-07-03T10:31:05.433Z,40.63
2023-07-03T10:32:05.461Z,40.59
2023-07-03T10:33:05.489Z,40.50
2023-07-03T10:34:05.416Z,40.50
2023-07-03T10:35:05.422Z,40.46
2023-07-03T10:36:05.877Z,40.50
2023-07-03T10:37:05.375Z,40.44
2023-07-03T10:38:05.370Z,40.46
2023-07-03T10:39:05.378Z,40.49
2023-07-03T10:40:05.394Z,40.44
2023-07-03T10:41:05.356Z,40.46
2023-07-03T10:42:05.365Z,40.46
2023-07-03T10:43:05.327Z,40.44
2023-07-03T10:44:05.341Z,40.50
2023-07-03T10:45:05.474Z,40.43
2023-07-03T10:46:05.389Z,40.50
2023-07-03T10:47:05.326Z,40.46
2023-07-03T10:48:05.314Z,40.42
2023-07-03T10:49:05.298Z,40.42
2023-07-03T10:50:05.304Z,40.44
2023-07-03T10:51:05.280Z,40.40
2023-07-03T10:52:05.289Z,40.37
2023-07-03T10:53:05.296Z,40.35
2023-07-03T10:54:05.275Z,40.38
2023-07-03T10:55:05.280Z,40.38
2023-07-03T10:56:05.250Z,40.34
2023-07-03T10:57:05.251Z,40.32
2023-07-03T10:58:05.251Z,40.34
2023-07-03T10:59:05.221Z,40.33
2023-07-03T11:00:05.218Z,40.30
2023-07-03T11:01:05.372Z,40.26
2023-07-03T11:02:05.219Z,40.32
2023-07-03T11:03:05.252Z,40.22
2023-07-03T11:04:22.927Z,40.26
2023-07-03T11:05:06.204Z,40.29
2023-07-03T11:06:05.199Z,40.22
2023-07-03T11:07:05.225Z,40.20
2023-07-03T11:08:05.184Z,40.25
2023-07-03T11:09:05.165Z,40.25
2023-07-03T11:10:05.202Z,40.23
2023-07-03T11:11:05.166Z,40.19
2023-07-03T11:12:05.173Z,40.19
2023-07-03T11:13:05.180Z,40.18
2023-07-03T11:14:05.146Z,40.19
2023-07-03T11:15:05.137Z,40.22
2023-07-03T11:16:05.182Z,40.20
2023-07-03T11:17:05.229Z,40.14
2023-07-03T11:20:05.100Z,40.12
2023-07-03T11:23:05.103Z,40.13
2023-07-03T11:24:05.074Z,40.13
2023-07-03T11:25:05.108Z,40.09
2023-07-03T11:28:05.063Z,40.10
2023-07-03T11:29:05.029Z,40.07
2023-07-03T11:30:05.036Z,40.04
2023-07-03T11:31:05.087Z,40.12
2023-07-03T11:32:05.020Z,40.04
2023-07-03T11:33:05.055Z,40.03
2023-07-03T11:36:04.999Z,39.96
2023-07-03T11:37:05.098Z,39.96
2023-07-03T11:40:05.033Z,39.92
2023-07-03T11:41:04.963Z,39.93
2023-07-03T11:44:04.948Z,39.95
2023-07-03T11:45:04.919Z,39.93
2023-07-03T11:46:04.928Z,39.94
2023-07-03T11:47:04.968Z,39.89
2023-07-03T11:48:04.942Z,39.86
2023-07-03T11:49:04.918Z,39.91
2023-07-03T11:50:04.918Z,39.95
2023-07-03T11:51:04.914Z,39.88
2023-07-03T11:52:04.884Z,39.90
2023-07-03T11:53:04.868Z,39.91
2023-07-03T11:54:04.876Z,39.90
2023-07-03T11:55:04.900Z,39.83
2023-07-03T11:56:04.865Z,39.89
2023-07-03T11:57:04.859Z,39.87
2023-07-03T11:58:20.511Z,39.83
2023-07-03T11:59:05.846Z,39.82
2023-07-03T12:00:04.846Z,39.85
2023-07-03T12:01:04.873Z,39.82
2023-07-03T12:02:04.846Z,39.83
2023-07-03T12:03:04.874Z,39.81
2023-07-03T12:04:04.836Z,39.85
2023-07-03T12:05:04.842Z,39.84
2023-07-03T12:06:04.784Z,39.78
2023-07-03T12:07:04.842Z,39.81
2023-07-03T12:08:04.790Z,39.77
2023-07-03T12:09:04.783Z,39.80
2023-07-03T12:10:04.782Z,39.79
2023-07-03T12:11:04.794Z,39.78
2023-07-03T12:12:04.763Z,39.77
2023-07-03T12:13:04.751Z,39.77
2023-07-03T12:14:04.740Z,39.76
2023-07-03T12:15:04.739Z,39.78
2023-07-03T12:16:04.742Z,39.76
2023-07-03T12:17:04.786Z,39.73
2023-07-03T12:18:04.816Z,39.71
2023-07-03T12:19:04.722Z,39.74
2023-07-03T12:20:04.703Z,39.72
2023-07-03T12:21:04.698Z,39.70
2023-07-03T12:22:04.706Z,39.66
2023-07-03T12:23:04.678Z,39.70
2023-07-03T12:24:04.679Z,39.70
2023-07-03T12:25:04.693Z,39.70
2023-07-03T12:26:04.703Z,39.71
2023-07-03T12:27:04.704Z,39.73
2023-07-03T12:28:04.707Z,39.68
2023-07-03T12:29:04.700Z,39.68
2023-07-03T12:30:04.714Z,39.65
2023-07-03T12:31:04.745Z,39.63
2023-07-03T12:32:04.746Z,39.65
2023-07-03T12:33:04.793Z,39.63
2023-07-03T12:34:04.750Z,39.67
2023-07-03T12:35:04.756Z,39.62
2023-07-03T12:36:04.763Z,39.64
2023-07-03T12:37:04.791Z,39.61
2023-07-03T12:38:04.789Z,39.59
2023-07-03T12:39:04.797Z,39.59
2023-07-03T12:40:04.799Z,39.64
2023-07-03T12:41:04.821Z,39.60
2023-07-03T12:42:04.839Z,39.63
2023-07-03T12:43:04.830Z,39.58
2023-07-03T12:44:08.608Z,39.59
2023-07-03T12:45:04.863Z,39.57
2023-07-03T12:46:04.826Z,39.58
2023-07-03T12:47:04.876Z,39.57
2023-07-03T12:48:04.850Z,39.51
2023-07-03T12:49:04.802Z,39.58
2023-07-03T12:50:04.817Z,39.50
2023-07-03T12:51:04.784Z,39.49
2023-07-03T12:52:04.782Z,39.49
2023-07-03T12:53:04.778Z,39.55
2023-07-03T12:54:04.763Z,39.51
2023-07-03T12:55:14.482Z,39.50
2023-07-03T12:56:05.756Z,39.50
2023-07-03T12:57:04.749Z,39.47
2023-07-03T12:58:04.753Z,39.50
2023-07-03T12:59:04.722Z,39.45
2023-07-03T13:00:04.742Z,39.53
2023-07-03T13:01:04.779Z,39.48
2023-07-03T13:02:04.728Z,39.50
2023-07-03T13:03:04.783Z,39.48
2023-07-03T13:04:04.710Z,39.53
2023-07-03T13:05:04.775Z,39.45
2023-07-03T13:06:04.778Z,39.42
2023-07-03T13:07:04.669Z,39.44
2023-07-03T13:08:04.676Z,39.44
2023-07-03T13:09:04.672Z,39.45
2023-07-03T13:10:04.721Z,39.44
2023-07-03T13:11:04.655Z,39.41
2023-07-03T13:12:04.643Z,39.39
2023-07-03T13:13:04.651Z,39.36
2023-07-03T13:14:04.638Z,39.38
2023-07-03T13:15:04.635Z,39.38